Time;durP1;ratioP1;P1;durP2;ratioP2;P2;SDS_P1;SDS_P2;PMS_P1;PMS_P2;Temp;Humidity;BMP_temperature;BMP_pressure;BME280_temperature;BME280_humidity;BME280_pressure;Samples;Min_cycle;Max_cycle;Signal;HPM_P1;HPM_P2
2023/06/15 00:02:15;;;;;;;0.20;0.20;;;;;;;14.53;84.30;100727.09;5050506;28;20262;-74
2023/06/15 00:04:40;;;;;;;0.53;0.53;;;;;;;14.39;84.36;100728.44;5051153;28;20247;-75
2023/06/15 00:07:06;;;;;;;0.00;0.00;;;;;;;14.40;84.85;100747.34;5051021;28;20638;-75
2023/06/15 00:09:32;;;;;;;0.00;0.00;;;;;;;14.43;84.67;100740.38;5050046;28;20256;-75
2023/06/15 00:11:57;;;;;;;0.73;0.67;;;;;;;14.37;84.87;100734.28;5050687;28;20653;-75
2023/06/15 00:14:22;;;;;;;0.00;0.00;;;;;;;14.32;84.89;100739.97;5050577;28;20210;-75
2023/06/15 00:16:52;;;;;;;0.20;0.20;;;;;;;14.24;85.24;100738.03;5050599;28;20186;-75
2023/06/15 00:19:20;;;;;;;0.57;0.57;;;;;;;14.18;85.55;100737.41;5050148;28;20274;-75
2023/06/15 00:21:47;;;;;;;2.13;0.97;;;;;;;14.16;85.63;100742.41;5050563;28;20289;-75
2023/06/15 00:24:14;;;;;;;0.50;0.40;;;;;;;14.15;85.68;100732.56;5050316;28;20684;-75
2023/06/15 00:26:39;;;;;;;0.00;0.00;;;;;;;14.20;85.76;100737.09;5050763;28;20202;-75
2023/06/15 00:29:05;;;;;;;0.13;0.13;;;;;;;14.13;85.85;100742.25;5050368;28;20186;-75
2023/06/15 00:31:30;;;;;;;0.00;0.00;;;;;;;14.13;86.04;100745.00;5050331;28;20180;-75
2023/06/15 00:33:56;;;;;;;0.20;0.20;;;;;;;14.14;85.97;100741.94;5050585;28;20298;-74
2023/06/15 00:36:21;;;;;;;0.97;0.97;;;;;;;13.96;86.13;100734.88;5049424;28;20244;-75
2023/06/15 00:38:46;;;;;;;0.00;0.00;;;;;;;13.89;87.10;100749.13;5049174;28;20183;-75
2023/06/15 00:41:11;;;;;;;1.23;1.17;;;;;;;13.85;87.43;100747.34;5050007;28;20231;-75
2023/06/15 00:43:37;;;;;;;0.27;0.27;;;;;;;13.75;88.08;100748.50;5050098;28;20203;-74
2023/06/15 00:46:03;;;;;;;0.00;0.00;;;;;;;13.69;88.90;100745.09;5050335;28;20605;-73
2023/06/15 00:48:29;;;;;;;0.50;0.50;;;;;;;13.65;89.32;100755.13;5050215;28;20256;-75
2023/06/15 00:50:55;;;;;;;0.63;0.63;;;;;;;13.58;89.98;100752.03;5050350;28;20205;-75
2023/06/15 00:53:21;;;;;;;0.00;0.00;;;;;;;13.63;90.63;100757.41;5050130;28;20751;-73
2023/06/15 00:55:50;;;;;;;0.00;0.00;;;;;;;13.69;90.61;100749.78;5050346;28;20183;-73
2023/06/15 00:58:17;;;;;;;0.23;0.23;;;;;;;13.78;90.64;100745.09;5049858;28;20611;-75
2023/06/15 01:00:48;;;;;;;1.67;1.67;;;;;;;13.91;90.04;100751.53;5049742;28;20209;-75
2023/06/15 01:03:15;;;;;;;0.00;0.00;;;;;;;13.96;89.84;100737.63;5050176;28;20211;-75
2023/06/15 01:05:44;;;;;;;0.37;0.20;;;;;;;13.96;89.40;100738.44;5052351;28;20229;-75
2023/06/15 01:08:10;;;;;;;0.20;0.20;;;;;;;13.97;88.89;100750.22;5054030;28;20183;-75
2023/06/15 01:10:36;;;;;;;0.00;0.00;;;;;;;13.98;88.28;100747.16;5053732;28;20236;-75
2023/06/15 01:13:03;;;;;;;0.50;0.50;;;;;;;13.98;87.76;100738.91;5053619;28;20677;-75
2023/06/15 01:15:29;;;;;;;0.30;0.30;;;;;;;14.02;87.91;100752.78;5053906;28;20266;-75
2023/06/15 01:17:59;;;;;;;0.17;0.17;;;;;;;14.06;87.64;100734.53;5054079;28;20255;-75
2023/06/15 01:20:30;;;;;;;0.20;0.20;;;;;;;14.09;87.18;100744.88;5053323;28;20561;-75
2023/06/15 01:23:10;;;;;;;0.10;0.10;;;;;;;14.12;86.80;100738.72;5053719;28;20199;-73
2023/06/15 01:25:45;;;;;;;0.10;0.10;;;;;;;14.14;86.31;100730.94;5053791;28;20187;-75
2023/06/15 01:28:13;;;;;;;0.00;0.00;;;;;;;14.13;85.90;100734.81;5053973;28;20189;-75
2023/06/15 01:30:44;;;;;;;0.10;0.10;;;;;;;14.10;85.69;100731.94;5053627;28;20206;-76
2023/06/15 01:33:11;;;;;;;0.77;0.77;;;;;;;14.04;85.16;100728.56;5053512;28;20207;-76
2023/06/15 01:35:37;;;;;;;0.33;0.33;;;;;;;13.91;84.82;100738.63;5053685;28;20245;-76
2023/06/15 01:38:03;;;;;;;0.27;0.27;;;;;;;13.89;84.84;100734.59;5053424;28;20183;-76
2023/06/15 01:40:30;;;;;;;0.00;0.00;;;;;;;13.82;84.41;100737.00;5053157;28;20217;-76
2023/06/15 01:42:57;;;;;;;0.00;0.00;;;;;;;13.79;83.96;100734.91;5053582;28;20289;-76
2023/06/15 01:45:24;;;;;;;0.00;0.00;;;;;;;13.81;83.71;100738.13;5053308;28;20190;-76
2023/06/15 01:47:51;;;;;;;0.00;0.00;;;;;;;13.86;83.91;100735.22;5053512;28;20650;-76
2023/06/15 01:50:17;;;;;;;0.00;0.00;;;;;;;13.87;83.61;100734.09;5053103;28;20186;-76
2023/06/15 01:52:44;;;;;;;0.00;0.00;;;;;;;13.75;83.29;100732.03;5053355;28;20461;-76
2023/06/15 01:55:09;;;;;;;0.00;0.00;;;;;;;13.58;83.19;100732.03;5053457;28;20179;-76
2023/06/15 01:57:39;;;;;;;0.33;0.33;;;;;;;13.47;83.78;100733.50;5053059;28;20633;-76
2023/06/15 02:00:06;;;;;;;0.00;0.00;;;;;;;13.43;83.43;100733.31;5052989;28;20579;-76
2023/06/15 02:02:32;;;;;;;0.00;0.00;;;;;;;13.35;83.84;100728.66;5053108;28;20211;-76
2023/06/15 02:04:57;;;;;;;0.73;0.73;;;;;;;13.17;83.87;100729.75;5053095;28;20265;-76
2023/06/15 02:07:23;;;;;;;0.00;0.00;;;;;;;13.07;85.22;100728.94;5053167;28;20274;-76
2023/06/15 02:09:48;;;;;;;0.00;0.00;;;;;;;13.10;85.16;100731.03;5051305;28;20191;-75
2023/06/15 02:12:13;;;;;;;0.43;0.43;;;;;;;13.07;85.87;100725.38;5052684;28;20183;-76
2023/06/15 02:14:40;;;;;;;0.87;0.33;;;;;;;12.92;86.11;100731.31;5052822;28;20301;-76
2023/06/15 02:17:05;;;;;;;0.40;0.40;;;;;;;12.80;86.43;100730.00;5051940;28;20240;-76
2023/06/15 02:19:30;;;;;;;0.00;0.00;;;;;;;12.76;87.09;100730.97;5052222;28;20597;-76
2023/06/15 02:21:56;;;;;;;0.10;0.10;;;;;;;12.81;87.19;100733.56;5052712;28;20734;-76
2023/06/15 02:24:21;;;;;;;0.00;0.00;;;;;;;12.86;86.65;100743.56;5052627;28;20207;-76
2023/06/15 02:26:47;;;;;;;0.00;0.00;;;;;;;12.93;87.42;100743.91;5052797;28;20187;-75
2023/06/15 02:29:12;;;;;;;0.00;0.00;;;;;;;12.96;86.25;100744.06;5052207;28;20193;-76
2023/06/15 02:31:37;;;;;;;0.00;0.00;;;;;;;13.01;86.46;100740.34;5052440;28;20218;-76
2023/06/15 02:34:03;;;;;;;0.00;0.00;;;;;;;12.93;85.70;100743.91;5052498;28;20236;-76
2023/06/15 02:36:30;;;;;;;0.17;0.17;;;;;;;12.84;86.08;100743.88;5052362;28;20190;-76
2023/06/15 02:38:57;;;;;;;0.00;0.00;;;;;;;12.75;85.57;100732.91;5052317;28;20183;-76
2023/06/15 02:41:22;;;;;;;0.40;0.40;;;;;;;12.69;86.11;100736.91;5052374;28;20179;-76
2023/06/15 02:43:48;;;;;;;0.07;0.07;;;;;;;12.62;86.57;100744.81;5052268;28;20261;-76
2023/06/15 02:46:13;;;;;;;0.60;0.60;;;;;;;12.53;86.77;100743.94;5051846;28;20186;-76
2023/06/15 02:48:38;;;;;;;0.63;0.47;;;;;;;12.42;86.64;100743.41;5051833;28;20194;-75
2023/06/15 02:51:04;;;;;;;0.17;0.17;;;;;;;12.39;86.72;100751.47;5051921;28;20257;-74
2023/06/15 02:53:29;;;;;;;0.40;0.40;;;;;;;12.17;88.17;100744.94;5050543;28;20293;-75
2023/06/15 02:55:56;;;;;;;0.43;0.43;;;;;;;12.10;88.95;100743.75;5052069;28;20190;-76
2023/06/15 02:58:24;;;;;;;0.00;0.00;;;;;;;12.10;88.67;100749.22;5051788;28;20574;-76
2023/06/15 03:00:50;;;;;;;4.27;0.20;;;;;;;12.05;89.82;100749.38;5051807;28;20179;-76
2023/06/15 03:03:27;;;;;;;0.00;0.00;;;;;;;11.98;89.95;100754.47;5051713;28;20252;-76
2023/06/15 03:05:54;;;;;;;0.00;0.00;;;;;;;11.94;90.24;100756.22;5051796;28;20187;-75
2023/06/15 03:08:20;;;;;;;0.27;0.27;;;;;;;11.84;90.65;100752.63;5051708;28;20257;-75
2023/06/15 03:10:45;;;;;;;0.10;0.10;;;;;;;11.81;90.70;100758.72;5051813;28;20307;-76
2023/06/15 03:13:11;;;;;;;0.63;0.30;;;;;;;11.84;91.89;100758.09;5051331;28;20289;-75
2023/06/15 03:15:37;;;;;;;0.10;0.10;;;;;;;11.84;91.80;100749.88;5051833;28;20291;-76
2023/06/15 03:18:04;;;;;;;0.00;0.00;;;;;;;11.88;92.26;100761.03;5051532;28;20614;-76
2023/06/15 03:20:32;;;;;;;2.27;1.37;;;;;;;11.89;92.23;100755.25;5051291;28;20202;-75
2023/06/15 03:22:59;;;;;;;0.00;0.00;;;;;;;11.88;92.03;100755.56;5051332;28;20205;-76
2023/06/15 03:25:25;;;;;;;0.00;0.00;;;;;;;11.94;92.77;100765.25;5051468;28;20185;-76
2023/06/15 03:27:53;;;;;;;0.00;0.00;;;;;;;12.08;93.24;100768.72;5049954;28;20365;-76
2023/06/15 03:30:18;;;;;;;0.00;0.00;;;;;;;12.20;92.83;100770.88;5050486;28;20205;-76
2023/06/15 03:32:46;;;;;;;0.00;0.00;;;;;;;12.26;92.69;100769.63;5051297;28;20274;-75
2023/06/15 03:35:12;;;;;;;0.67;0.47;;;;;;;12.15;91.88;100768.25;5050083;28;20572;-75
2023/06/15 03:37:37;;;;;;;0.20;0.20;;;;;;;12.12;92.01;100772.44;5051470;28;20191;-76
2023/06/15 03:40:05;;;;;;;0.00;0.00;;;;;;;12.21;92.58;100773.31;5051013;28;20233;-76
2023/06/15 03:42:30;;;;;;;0.20;0.20;;;;;;;12.22;91.79;100779.59;5043236;28;20283;-76
2023/06/15 03:44:56;;;;;;;0.10;0.10;;;;;;;12.23;92.36;100773.00;5050460;28;20211;-75
2023/06/15 03:47:21;;;;;;;2.70;1.00;;;;;;;12.29;92.91;100782.69;5050944;28;20262;-76
2023/06/15 03:49:46;;;;;;;0.00;0.00;;;;;;;12.37;93.07;100781.94;5049247;28;20233;-75
2023/06/15 03:52:12;;;;;;;0.73;0.73;;;;;;;12.44;92.79;100784.19;5051293;28;20179;-75
2023/06/15 03:54:37;;;;;;;0.00;0.00;;;;;;;12.38;93.64;100780.00;5050921;28;20206;-75
2023/06/15 03:57:02;;;;;;;0.10;0.10;;;;;;;12.39;93.53;100779.69;5050875;28;20200;-76
2023/06/15 03:59:28;;;;;;;0.00;0.00;;;;;;;12.54;93.54;100783.94;5050342;28;20191;-75
2023/06/15 04:01:53;;;;;;;0.07;0.07;;;;;;;12.76;94.02;100788.56;5050890;28;20519;-75
2023/06/15 04:04:18;;;;;;;0.97;0.97;;;;;;;12.85;92.95;100785.81;5051158;28;20214;-75
2023/06/15 04:06:47;;;;;;;0.10;0.10;;;;;;;12.80;92.21;100790.34;5050982;28;20179;-75
2023/06/15 04:09:14;;;;;;;0.00;0.00;;;;;;;12.93;93.00;100794.09;5050449;28;20221;-75
2023/06/15 04:11:40;;;;;;;0.00;0.00;;;;;;;13.06;93.20;100800.56;5050956;28;20198;-75
2023/06/15 04:14:06;;;;;;;0.00;0.00;;;;;;;13.20;93.72;100801.28;5050656;28;20685;-76
2023/06/15 04:16:31;;;;;;;0.00;0.00;;;;;;;13.39;92.72;100807.28;5050636;28;20197;-75
2023/06/15 04:18:57;;;;;;;0.00;0.00;;;;;;;13.44;92.15;100803.56;5050596;28;20552;-76
2023/06/15 04:21:22;;;;;;;0.00;0.00;;;;;;;13.52;92.46;100808.25;5050245;28;20179;-75
2023/06/15 04:23:48;;;;;;;0.00;0.00;;;;;;;13.38;91.32;100800.16;5050604;28;20203;-74
2023/06/15 04:26:13;;;;;;;0.00;0.00;;;;;;;13.50;91.32;100813.25;5049230;28;20179;-76
2023/06/15 04:28:39;;;;;;;0.00;0.00;;;;;;;13.72;90.97;100808.72;5049145;28;20186;-76
2023/06/15 04:31:08;;;;;;;0.00;0.00;;;;;;;13.84;90.47;100817.13;5050132;28;20214;-75
2023/06/15 04:33:33;;;;;;;0.00;0.00;;;;;;;13.77;90.02;100814.09;5050450;28;20195;-76
2023/06/15 04:36:00;;;;;;;0.00;0.00;;;;;;;13.84;90.31;100822.63;5050692;28;20183;-75
2023/06/15 04:38:26;;;;;;;0.00;0.00;;;;;;;14.14;89.89;100824.38;5049116;28;20190;-76
2023/06/15 04:40:52;;;;;;;0.00;0.00;;;;;;;14.32;88.06;100816.09;5051228;28;20179;-76
2023/06/15 04:43:18;;;;;;;0.00;0.00;;;;;;;14.46;87.17;100817.53;5054343;28;20209;-75
2023/06/15 04:45:44;;;;;;;0.00;0.00;;;;;;;14.51;86.25;100816.56;5054585;28;20262;-76
2023/06/15 04:48:09;;;;;;;0.13;0.13;;;;;;;14.53;85.88;100812.34;5054408;28;20321;-75
2023/06/15 04:50:35;;;;;;;0.00;0.00;;;;;;;14.55;85.74;100821.06;5054473;28;20263;-75
2023/06/15 04:53:00;;;;;;;0.00;0.00;;;;;;;14.53;85.93;100817.84;5054329;28;20277;-75
2023/06/15 04:55:26;;;;;;;0.00;0.00;;;;;;;14.62;86.88;100831.56;5054294;28;20194;-75
2023/06/15 04:57:51;;;;;;;0.70;0.70;;;;;;;14.69;87.32;100828.31;5054160;28;20194;-75
2023/06/15 05:00:16;;;;;;;0.00;0.00;;;;;;;14.71;87.87;100828.78;5053831;28;20179;-75
2023/06/15 05:02:42;;;;;;;0.00;0.00;;;;;;;14.75;88.55;100829.72;5052961;28;20582;-75
2023/06/15 05:05:07;;;;;;;0.00;0.00;;;;;;;14.77;87.26;100833.78;5054207;28;20205;-75
2023/06/15 05:07:33;;;;;;;0.10;0.10;;;;;;;14.80;85.81;100827.63;5054219;28;20270;-75
2023/06/15 05:09:58;;;;;;;0.10;0.10;;;;;;;14.93;85.22;100824.97;5053497;28;20187;-75
2023/06/15 05:12:23;;;;;;;0.03;0.00;;;;;;;14.95;83.96;100820.75;5053478;28;20214;-75
2023/06/15 05:14:49;;;;;;;0.00;0.00;;;;;;;14.91;82.75;100828.06;5053857;28;20667;-75
2023/06/15 05:17:14;;;;;;;0.53;0.53;;;;;;;14.92;82.29;100820.63;5054068;28;20641;-74
2023/06/15 05:19:40;;;;;;;0.00;0.00;;;;;;;14.94;80.61;100826.59;5053671;28;20187;-76
2023/06/15 05:22:06;;;;;;;0.00;0.00;;;;;;;15.02;81.33;100825.72;5054059;28;20191;-76
2023/06/15 05:24:32;;;;;;;0.00;0.00;;;;;;;14.98;79.95;100813.78;5057965;28;20211;-80
2023/06/15 05:26:57;;;;;;;0.00;0.00;;;;;;;15.05;80.73;100811.31;5049939;28;20179;-74
2023/06/15 05:29:23;;;;;;;0.00;0.00;;;;;;;15.14;81.09;100818.38;5052142;28;20183;-74
2023/06/15 05:31:48;;;;;;;0.00;0.00;;;;;;;15.11;78.72;100818.22;5053774;28;20211;-76
2023/06/15 05:34:13;;;;;;;0.00;0.00;;;;;;;15.12;78.03;100822.59;5053484;28;20207;-75
2023/06/15 05:36:39;;;;;;;0.00;0.00;;;;;;;15.26;79.73;100825.91;5054406;28;20229;-76
2023/06/15 05:39:05;;;;;;;0.10;0.10;;;;;;;15.36;78.53;100828.28;5052977;28;20282;-78
2023/06/15 05:41:30;;;;;;;0.00;0.00;;;;;;;15.40;77.49;100829.22;5053353;28;20266;-75
2023/06/15 05:43:56;;;;;;;0.00;0.00;;;;;;;15.49;77.61;100826.41;5052166;28;20203;-74
2023/06/15 05:46:21;;;;;;;0.00;0.00;;;;;;;15.46;77.13;100829.81;5055799;28;20183;-75
2023/06/15 05:48:47;;;;;;;0.00;0.00;;;;;;;15.47;77.29;100829.47;5053366;28;20179;-76
2023/06/15 05:51:12;;;;;;;2.80;2.67;;;;;;;15.50;76.06;100827.22;5049510;28;20207;-76
2023/06/15 05:53:37;;;;;;;0.00;0.00;;;;;;;15.56;75.98;100825.88;5053202;28;20260;-75
2023/06/15 05:56:03;;;;;;;0.00;0.00;;;;;;;15.69;76.51;100842.16;5053502;28;20179;-75
2023/06/15 05:58:29;;;;;;;0.00;0.00;;;;;;;15.82;76.26;100843.03;5052900;28;20249;-75
2023/06/15 06:00:54;;;;;;;0.00;0.00;;;;;;;15.88;76.34;100840.88;5053140;28;20179;-74
2023/06/15 06:03:19;;;;;;;0.00;0.00;;;;;;;15.94;76.82;100837.59;5053114;28;20272;-75
2023/06/15 06:05:45;;;;;;;0.27;0.27;;;;;;;16.02;77.00;100833.94;5053164;28;20701;-75
2023/06/15 06:08:10;;;;;;;0.00;0.00;;;;;;;15.99;76.26;100831.84;5052958;28;20190;-76
2023/06/15 06:10:35;;;;;;;0.00;0.00;;;;;;;16.01;76.36;100834.28;5052466;28;20828;-76
2023/06/15 06:13:01;;;;;;;0.53;0.53;;;;;;;16.14;73.99;100824.09;5052761;28;20598;-76
2023/06/15 06:15:26;;;;;;;0.00;0.00;;;;;;;16.30;72.85;100830.59;5052935;28;20182;-76
2023/06/15 06:17:52;;;;;;;0.00;0.00;;;;;;;16.38;73.67;100829.69;5052844;28;20197;-76
2023/06/15 06:20:17;;;;;;;0.13;0.13;;;;;;;16.58;71.78;100825.25;5052401;28;20254;-75
2023/06/15 06:22:43;;;;;;;0.00;0.00;;;;;;;16.68;69.51;100816.56;5052806;28;20199;-76
2023/06/15 06:25:08;;;;;;;0.73;0.70;;;;;;;16.76;68.93;100817.59;5052789;28;20938;-76
2023/06/15 06:27:33;;;;;;;0.00;0.00;;;;;;;16.58;67.95;100809.50;5052461;28;20187;-75
2023/06/15 06:29:59;;;;;;;0.10;0.10;;;;;;;16.67;68.77;100814.97;5052250;28;20218;-75
2023/06/15 06:32:25;;;;;;;0.00;0.00;;;;;;;16.74;66.11;100803.34;5052453;28;20179;-76
2023/06/15 06:34:50;;;;;;;0.00;0.00;;;;;;;16.81;68.12;100809.09;5041730;28;20194;-75
2023/06/15 06:37:15;;;;;;;0.00;0.00;;;;;;;16.93;68.31;100814.63;5050089;28;20193;-76
2023/06/15 06:39:40;;;;;;;0.73;0.73;;;;;;;17.28;66.60;100814.13;5051870;28;20867;-76
2023/06/15 06:42:06;;;;;;;0.00;0.00;;;;;;;17.46;65.90;100813.53;5045413;28;20665;-75
2023/06/15 06:44:31;;;;;;;1.13;1.13;;;;;;;17.58;65.01;100818.22;5052029;28;20278;-76
2023/06/15 06:46:57;;;;;;;0.00;0.00;;;;;;;17.58;64.95;100812.69;5052451;28;20649;-76
2023/06/15 06:49:22;;;;;;;0.57;0.57;;;;;;;17.60;65.52;100820.63;5051854;28;20245;-74
2023/06/15 06:51:47;;;;;;;0.00;0.00;;;;;;;17.61;65.50;100814.75;5052051;28;20309;-76
2023/06/15 06:54:12;;;;;;;0.07;0.07;;;;;;;17.72;66.13;100818.66;5052167;28;20198;-75
2023/06/15 06:56:38;;;;;;;0.20;0.20;;;;;;;17.80;65.52;100822.47;5052078;28;20175;-76
2023/06/15 06:59:03;;;;;;;0.10;0.10;;;;;;;17.71;65.37;100819.81;5051958;28;20528;-75
2023/06/15 07:01:28;;;;;;;0.00;0.00;;;;;;;17.77;65.25;100815.66;5042190;28;20836;-75
2023/06/15 07:03:54;;;;;;;0.00;0.00;;;;;;;17.88;65.71;100821.50;5051542;28;20195;-76
2023/06/15 07:06:19;;;;;;;0.00;0.00;;;;;;;18.02;66.54;100824.66;5052101;28;20194;-76
2023/06/15 07:08:45;;;;;;;0.00;0.00;;;;;;;18.14;64.70;100821.03;5051956;28;20185;-76
2023/06/15 07:11:11;;;;;;;0.20;0.20;;;;;;;18.14;61.85;100809.97;5050293;28;20273;-76
2023/06/15 07:13:36;;;;;;;0.00;0.00;;;;;;;18.24;62.75;100814.19;5051864;28;20680;-75
2023/06/15 07:16:02;;;;;;;1.67;0.90;;;;;;;18.25;63.30;100810.28;5051918;28;20175;-75
2023/06/15 07:18:27;;;;;;;0.10;0.10;;;;;;;18.11;62.71;100808.72;5051580;28;20544;-75
2023/06/15 07:20:55;;;;;;;0.03;0.03;;;;;;;18.30;62.94;100818.31;5051646;28;20179;-76
2023/06/15 07:23:22;;;;;;;0.00;0.00;;;;;;;18.42;61.90;100807.97;5051749;28;20621;-75
2023/06/15 07:25:49;;;;;;;0.57;0.37;;;;;;;18.49;59.35;100801.81;5047562;28;20179;-76
2023/06/15 07:28:14;;;;;;;0.00;0.00;;;;;;;18.57;58.40;100789.78;5051505;28;20210;-76
2023/06/15 07:30:40;;;;;;;0.00;0.00;;;;;;;18.75;58.37;100795.78;5051203;28;20226;-76
2023/06/15 07:33:05;;;;;;;0.20;0.20;;;;;;;18.98;58.43;100798.72;5050180;28;20230;-76
2023/06/15 07:35:31;;;;;;;0.83;0.83;;;;;;;19.01;58.09;100790.47;5051382;28;20175;-75
2023/06/15 07:37:57;;;;;;;0.00;0.00;;;;;;;19.11;56.92;100789.13;5051362;28;20206;-73
2023/06/15 07:40:22;;;;;;;1.20;0.93;;;;;;;18.95;55.04;100778.09;5051656;28;20183;-77
2023/06/15 07:42:47;;;;;;;0.50;0.50;;;;;;;18.94;55.97;100782.00;5055379;28;20199;-76
2023/06/15 07:45:13;;;;;;;0.00;0.00;;;;;;;18.99;56.77;100790.03;5056344;28;20183;-76
2023/06/15 07:47:38;;;;;;;0.00;0.00;;;;;;;19.13;53.63;100784.03;5057329;28;20183;-77
2023/06/15 07:50:03;;;;;;;0.00;0.00;;;;;;;19.24;53.77;100785.09;5057637;28;20187;-76
2023/06/15 07:52:29;;;;;;;0.60;0.60;;;;;;;19.32;52.52;100775.75;5058151;28;20187;-75
2023/06/15 07:54:54;;;;;;;1.07;0.97;;;;;;;19.29;53.74;100782.03;5056971;28;20192;-77
2023/06/15 07:57:20;;;;;;;0.90;0.90;;;;;;;19.26;52.87;100781.94;5054886;28;20281;-76
2023/06/15 07:59:45;;;;;;;0.40;0.40;;;;;;;19.24;52.22;100784.25;5056054;28;20183;-75
2023/06/15 08:02:10;;;;;;;0.00;0.00;;;;;;;19.31;51.70;100773.34;5053657;28;20181;-76
2023/06/15 08:04:36;;;;;;;0.00;0.00;;;;;;;19.50;52.91;100787.22;5052930;28;20565;-77
2023/06/15 08:07:01;;;;;;;0.00;0.00;;;;;;;19.66;53.10;100775.28;5053752;28;20179;-76
2023/06/15 08:09:26;;;;;;;0.00;0.00;;;;;;;19.84;53.61;100782.00;5049947;28;20208;-76
2023/06/15 08:11:51;;;;;;;0.00;0.00;;;;;;;19.88;53.44;100777.34;5052088;28;20220;-75
2023/06/15 08:14:19;;;;;;;0.20;0.20;;;;;;;19.90;51.47;100767.47;5052479;28;20196;-80
2023/06/15 08:16:44;;;;;;;0.37;0.37;;;;;;;20.13;51.69;100769.50;5059863;28;20656;-79
2023/06/15 08:19:09;;;;;;;0.10;0.10;;;;;;;20.08;50.77;100764.22;5055567;28;20206;-82
2023/06/15 08:21:35;;;;;;;0.00;0.00;;;;;;;20.00;49.70;100757.75;5056119;28;20423;-82
2023/06/15 08:24:00;;;;;;;0.00;0.00;;;;;;;20.24;50.69;100769.66;5053982;28;20196;-81
2023/06/15 08:26:25;;;;;;;0.00;0.00;;;;;;;20.40;51.25;100773.97;5053129;28;20175;-81
2023/06/15 08:28:51;;;;;;;0.00;0.00;;;;;;;20.62;51.74;100777.91;5053832;28;20179;-77
2023/06/15 08:31:16;;;;;;;0.00;0.00;;;;;;;20.63;49.68;100757.31;5053522;28;20211;-80
2023/06/15 08:33:41;;;;;;;0.00;0.00;;;;;;;20.67;49.89;100758.16;5056853;28;20257;-77
2023/06/15 08:36:07;;;;;;;0.00;0.00;;;;;;;20.88;50.67;100756.91;5057204;28;20255;-81
2023/06/15 08:38:32;;;;;;;0.27;0.27;;;;;;;21.08;48.35;100753.63;5055139;28;20180;-77
2023/06/15 08:40:57;;;;;;;0.40;0.40;;;;;;;21.27;48.00;100758.31;5051507;28;20259;-76
2023/06/15 08:43:25;;;;;;;0.10;0.10;;;;;;;21.20;46.75;100749.03;5050985;28;20205;-76
2023/06/15 08:45:54;;;;;;;0.00;0.00;;;;;;;20.96;48.42;100762.19;5051955;28;20197;-77
2023/06/15 08:48:21;;;;;;;0.00;0.00;;;;;;;21.00;47.81;100754.72;5052739;28;20194;-76
2023/06/15 08:50:49;;;;;;;0.20;0.20;;;;;;;21.05;47.98;100759.16;5053656;28;20301;-76
2023/06/15 08:53:16;;;;;;;0.00;0.00;;;;;;;21.13;47.79;100760.88;5052380;28;20207;-76
2023/06/15 08:55:42;;;;;;;0.70;0.60;;;;;;;21.15;47.43;100757.72;5054550;28;20182;-75
2023/06/15 08:58:08;;;;;;;1.07;0.40;;;;;;;21.31;45.27;100750.81;5053432;28;20199;-76
2023/06/15 09:00:35;;;;;;;0.17;0.17;;;;;;;21.23;45.57;100742.72;5053619;28;20198;-76
2023/06/15 09:03:04;;;;;;;0.13;0.13;;;;;;;21.32;44.69;100740.50;5053913;28;20619;-77
2023/06/15 09:05:29;;;;;;;0.00;0.00;;;;;;;21.42;43.16;100741.81;5053516;28;20200;-76
2023/06/15 09:07:55;;;;;;;0.00;0.00;;;;;;;21.49;42.95;100734.34;5054156;28;20346;-76
2023/06/15 09:10:21;;;;;;;0.00;0.00;;;;;;;21.79;45.48;100750.19;5053945;28;20208;-77
2023/06/15 09:12:48;;;;;;;0.30;0.30;;;;;;;21.61;44.91;100742.47;5055883;28;20217;-77
2023/06/15 09:15:22;;;;;;;1.23;0.93;;;;;;;21.67;45.57;100749.28;5054016;28;20178;-76
2023/06/15 09:17:51;;;;;;;0.00;0.00;;;;;;;21.86;46.37;100753.88;5053258;28;20193;-76
2023/06/15 09:20:21;;;;;;;5.00;1.53;;;;;;;21.68;43.63;100736.97;5053784;28;20186;-76
2023/06/15 09:22:47;;;;;;;0.00;0.00;;;;;;;21.61;42.92;100731.34;5053814;28;20209;-77
2023/06/15 09:25:17;;;;;;;0.43;0.43;;;;;;;21.68;43.90;100734.19;5055452;28;20189;-77
2023/06/15 09:27:56;;;;;;;0.13;0.13;;;;;;;21.61;43.54;100734.13;5058918;28;20212;-77
2023/06/15 09:30:31;;;;;;;0.10;0.10;;;;;;;21.79;45.78;100739.88;5059249;28;20201;-77
2023/06/15 09:32:57;;;;;;;0.00;0.00;;;;;;;;;;5060076;28;20931;-77
2023/06/15 09:35:23;;;;;;;0.50;0.43;;;;;;;22.00;45.08;100741.31;5059878;28;20192;-77
2023/06/15 09:37:54;;;;;;;0.50;0.50;;;;;;;21.76;42.07;100720.38;5057439;28;20194;-77
2023/06/15 09:40:19;;;;;;;0.37;0.30;;;;;;;21.90;42.31;100718.53;5059327;28;20271;-77
2023/06/15 09:42:50;;;;;;;0.00;0.00;;;;;;;21.77;42.67;100719.19;5059601;28;20201;-77
2023/06/15 09:45:15;;;;;;;0.10;0.10;;;;;;;21.91;41.46;100714.56;5059191;28;20190;-77
2023/06/15 09:47:41;;;;;;;0.57;0.57;;;;;;;21.74;41.41;100717.19;5058936;28;20189;-80
2023/06/15 09:50:10;;;;;;;0.00;0.00;;;;;;;21.76;42.16;100712.03;5056237;28;20190;-80
2023/06/15 09:52:43;;;;;;;0.10;0.10;;;;;;;22.02;42.53;100713.91;5055827;28;20300;-81
2023/06/15 09:55:09;;;;;;;0.30;0.30;;;;;;;22.01;41.88;100712.28;5058764;28;20599;-80
2023/06/15 09:57:35;;;;;;;0.23;0.20;;;;;;;22.13;42.00;100706.47;5056039;28;20206;-79
2023/06/15 10:00:02;;;;;;;0.00;0.00;;;;;;;22.33;42.81;100716.19;5059333;28;20179;-78
2023/06/15 10:02:28;;;;;;;0.20;0.20;;;;;;;22.61;41.58;100710.06;5054541;28;20190;-77
2023/06/15 10:04:54;;;;;;;27.07;1.03;;;;;;;22.61;38.18;100698.13;5051276;28;21008;-77
2023/06/15 10:07:21;;;;;;;0.00;0.00;;;;;;;22.44;37.99;100689.25;5057222;28;20182;-77
2023/06/15 10:09:48;;;;;;;1.47;1.37;;;;;;;22.70;38.73;100701.34;5057739;28;20332;-77
2023/06/15 10:12:22;;;;;;;0.40;0.27;;;;;;;22.69;38.04;100696.97;5059449;28;20313;-77
2023/06/15 10:14:55;;;;;;;1.03;1.03;;;;;;;22.54;39.35;100701.63;5060946;28;20178;-77
2023/06/15 10:17:32;;;;;;;0.83;0.83;;;;;;;22.11;37.29;100681.78;5060697;28;20187;-77
2023/06/15 10:20:08;;;;;;;0.63;0.53;;;;;;;22.06;38.02;100684.13;5059640;28;20185;-77
2023/06/15 10:22:39;;;;;;;0.43;0.43;;;;;;;22.52;39.49;100698.44;5060211;28;20204;-77
2023/06/15 10:25:07;;;;;;;0.30;0.23;;;;;;;22.53;39.45;100681.34;5060674;28;20189;-77
2023/06/15 10:27:33;;;;;;;0.50;0.50;;;;;;;22.82;39.81;100678.75;5061588;28;20183;-77
2023/06/15 10:30:27;;;;;;;0.47;0.47;;;;;;;23.26;39.67;100686.97;5060159;28;20179;-77
2023/06/15 10:32:52;;;;;;;0.10;0.10;;;;;;;23.27;37.27;100680.19;5058405;28;20230;-77
2023/06/15 10:35:29;;;;;;;0.00;0.00;;;;;;;23.48;38.65;100681.50;5060970;28;20171;-76
2023/06/15 10:38:30;;;;;;;1.13;1.03;;;;;;;23.54;37.45;100666.75;5059708;28;20459;-77
2023/06/15 10:40:56;;;;;;;1.10;1.10;;;;;;;23.18;37.90;100671.41;5056340;28;20191;-76
2023/06/15 10:43:26;;;;;;;0.20;0.20;;;;;;;22.98;38.60;100667.31;5059646;28;20199;-77
2023/06/15 10:45:52;;;;;;;0.00;0.00;;;;;;;23.52;39.88;100685.88;5061656;28;20182;-77
2023/06/15 10:48:38;;;;;;;0.47;0.47;;;;;;;23.56;38.65;100674.72;5060097;28;20179;-77
2023/06/15 10:51:08;;;;;;;0.13;0.13;;;;;;;23.36;38.15;100668.69;5058789;28;20278;-77
2023/06/15 10:53:41;;;;;;;3.17;1.10;;;;;;;23.37;38.32;100659.94;5060407;28;20205;-77
2023/06/15 10:56:16;;;;;;;0.43;0.43;;;;;;;23.63;38.60;100664.44;5060288;28;20209;-77
2023/06/15 10:58:56;;;;;;;1.17;1.03;;;;;;;23.50;37.43;100654.00;5058933;28;20190;-77
2023/06/15 11:01:26;;;;;;;0.00;0.00;;;;;;;23.74;37.71;100659.69;5058955;28;20265;-77
2023/06/15 11:03:54;;;;;;;0.17;0.17;;;;;;;23.72;36.80;100650.91;5059042;28;20278;-77
2023/06/15 11:06:29;;;;;;;0.20;0.20;;;;;;;23.59;36.71;100652.47;5059387;28;20176;-77
2023/06/15 11:09:06;;;;;;;0.10;0.10;;;;;;;23.38;36.87;100647.59;5059802;28;20183;-77
2023/06/15 11:11:35;;;;;;;0.37;0.37;;;;;;;23.53;36.12;100653.22;5059610;28;20241;-77
2023/06/15 11:14:05;;;;;;;0.10;0.10;;;;;;;23.54;37.20;100652.00;5060302;28;20199;-77
2023/06/15 11:16:38;;;;;;;1.47;0.97;;;;;;;23.60;36.16;100637.31;5059730;28;20183;-77
2023/06/15 11:19:12;;;;;;;0.60;0.57;;;;;;;23.56;36.18;100641.25;5059183;28;20190;-77
2023/06/15 11:21:57;;;;;;;0.90;0.80;;;;;;;23.49;35.58;100635.66;5057528;28;20209;-75
2023/06/15 11:24:24;;;;;;;2.70;0.93;;;;;;;23.40;36.35;100642.41;5056492;28;20211;-77
2023/06/15 11:26:50;;;;;;;0.40;0.30;;;;;;;23.45;36.48;100636.47;5058599;28;20182;-77